sensor_id;sensor_type;location;lat;lon;timestamp;P1;durP1;ratioP1;P2;durP2;ratioP2
59145;SDS011;44928;53.074;6.646;2023-01-23T00:00:41;13.07;;;5.32;;
59145;SDS011;44928;53.074;6.646;2023-01-23T00:03:11;15.20;;;5.40;;
59145;SDS011;44928;53.074;6.646;2023-01-23T00:05:37;13.32;;;5.90;;
59145;SDS011;44928;53.074;6.646;2023-01-23T00:08:02;12.23;;;5.75;;
59145;SDS011;44928;53.074;6.646;2023-01-23T00:10:28;12.30;;;5.20;;
59145;SDS011;44928;53.074;6.646;2023-01-23T00:12:54;13.35;;;5.50;;
59145;SDS011;44928;53.074;6.646;2023-01-23T00:15:21;12.07;;;5.28;;
59145;SDS011;44928;53.074;6.646;2023-01-23T00:17:47;10.85;;;4.35;;
59145;SDS011;44928;53.074;6.646;2023-01-23T00:20:13;12.32;;;4.80;;
59145;SDS011;44928;53.074;6.646;2023-01-23T00:22:39;13.07;;;4.95;;
59145;SDS011;44928;53.074;6.646;2023-01-23T00:25:05;13.40;;;5.57;;
59145;SDS011;44928;53.074;6.646;2023-01-23T00:27:31;11.73;;;5.10;;
59145;SDS011;44928;53.074;6.646;2023-01-23T00:29:57;12.98;;;5.30;;
59145;SDS011;44928;53.074;6.646;2023-01-23T00:32:23;13.10;;;5.43;;
59145;SDS011;44928;53.074;6.646;2023-01-23T00:34:49;13.60;;;4.63;;
59145;SDS011;44928;53.074;6.646;2023-01-23T00:37:15;12.00;;;5.00;;
59145;SDS011;44928;53.074;6.646;2023-01-23T00:39:42;11.90;;;5.10;;
59145;SDS011;44928;53.074;6.646;2023-01-23T00:42:09;11.68;;;5.28;;
59145;SDS011;44928;53.074;6.646;2023-01-23T00:44:35;11.18;;;4.43;;
59145;SDS011;44928;53.074;6.646;2023-01-23T00:47:01;13.57;;;5.55;;
59145;SDS011;44928;53.074;6.646;2023-01-23T00:49:27;11.85;;;4.90;;
59145;SDS011;44928;53.074;6.646;2023-01-23T00:51:54;12.48;;;4.97;;
59145;SDS011;44928;53.074;6.646;2023-01-23T00:54:21;12.85;;;5.43;;
59145;SDS011;44928;53.074;6.646;2023-01-23T00:56:50;11.25;;;5.20;;
59145;SDS011;44928;53.074;6.646;2023-01-23T00:59:16;12.75;;;5.25;;
59145;SDS011;44928;53.074;6.646;2023-01-23T01:01:42;13.98;;;5.13;;
59145;SDS011;44928;53.074;6.646;2023-01-23T01:04:08;11.05;;;4.60;;
59145;SDS011;44928;53.074;6.646;2023-01-23T01:06:33;11.68;;;5.03;;
59145;SDS011;44928;53.074;6.646;2023-01-23T01:08:59;14.10;;;5.18;;
59145;SDS011;44928;53.074;6.646;2023-01-23T01:11:25;13.35;;;4.85;;
59145;SDS011;44928;53.074;6.646;2023-01-23T01:13:51;11.60;;;5.07;;
59145;SDS011;44928;53.074;6.646;2023-01-23T01:16:17;16.08;;;4.80;;
59145;SDS011;44928;53.074;6.646;2023-01-23T01:18:43;12.52;;;5.65;;
59145;SDS011;44928;53.074;6.646;2023-01-23T01:21:10;10.95;;;4.90;;
59145;SDS011;44928;53.074;6.646;2023-01-23T01:23:38;11.70;;;5.55;;
59145;SDS011;44928;53.074;6.646;2023-01-23T01:26:04;11.23;;;4.60;;
59145;SDS011;44928;53.074;6.646;2023-01-23T01:28:31;11.55;;;5.10;;
59145;SDS011;44928;53.074;6.646;2023-01-23T01:31:02;13.82;;;5.35;;
59145;SDS011;44928;53.074;6.646;2023-01-23T01:33:30;11.43;;;4.97;;
59145;SDS011;44928;53.074;6.646;2023-01-23T01:35:57;13.13;;;5.25;;
59145;SDS011;44928;53.074;6.646;2023-01-23T01:38:23;13.27;;;5.03;;
59145;SDS011;44928;53.074;6.646;2023-01-23T01:40:49;12.93;;;5.05;;
59145;SDS011;44928;53.074;6.646;2023-01-23T01:43:19;11.77;;;5.90;;
59145;SDS011;44928;53.074;6.646;2023-01-23T01:51:20;11.40;;;5.35;;
59145;SDS011;44928;53.074;6.646;2023-01-23T01:53:58;12.93;;;5.30;;
59145;SDS011;44928;53.074;6.646;2023-01-23T01:56:27;12.57;;;5.38;;
59145;SDS011;44928;53.074;6.646;2023-01-23T01:58:56;12.40;;;5.10;;
59145;SDS011;44928;53.074;6.646;2023-01-23T02:01:24;12.30;;;5.32;;
59145;SDS011;44928;53.074;6.646;2023-01-23T02:03:50;11.98;;;5.55;;
59145;SDS011;44928;53.074;6.646;2023-01-23T02:06:18;12.30;;;5.65;;
59145;SDS011;44928;53.074;6.646;2023-01-23T02:08:51;11.25;;;5.53;;
59145;SDS011;44928;53.074;6.646;2023-01-23T02:11:29;10.20;;;5.55;;
59145;SDS011;44928;53.074;6.646;2023-01-23T02:13:55;12.20;;;6.25;;
59145;SDS011;44928;53.074;6.646;2023-01-23T02:16:23;11.27;;;5.07;;
59145;SDS011;44928;53.074;6.646;2023-01-23T02:18:53;12.25;;;5.80;;
59145;SDS011;44928;53.074;6.646;2023-01-23T02:21:24;12.63;;;5.85;;
59145;SDS011;44928;53.074;6.646;2023-01-23T02:24:00;14.25;;;5.72;;
59145;SDS011;44928;53.074;6.646;2023-01-23T02:26:39;12.30;;;5.70;;
59145;SDS011;44928;53.074;6.646;2023-01-23T02:29:07;13.60;;;6.10;;
59145;SDS011;44928;53.074;6.646;2023-01-23T02:31:34;12.85;;;6.47;;
59145;SDS011;44928;53.074;6.646;2023-01-23T02:34:01;12.00;;;5.95;;
59145;SDS011;44928;53.074;6.646;2023-01-23T02:36:29;12.45;;;6.18;;
59145;SDS011;44928;53.074;6.646;2023-01-23T02:41:29;11.98;;;5.65;;
59145;SDS011;44928;53.074;6.646;2023-01-23T02:44:04;14.68;;;6.05;;
59145;SDS011;44928;53.074;6.646;2023-01-23T02:46:41;12.98;;;6.30;;
59145;SDS011;44928;53.074;6.646;2023-01-23T02:49:07;12.73;;;5.88;;
59145;SDS011;44928;53.074;6.646;2023-01-23T02:51:33;12.85;;;6.60;;
59145;SDS011;44928;53.074;6.646;2023-01-23T02:53:59;13.07;;;6.68;;
59145;SDS011;44928;53.074;6.646;2023-01-23T02:56:25;13.13;;;6.53;;
59145;SDS011;44928;53.074;6.646;2023-01-23T02:58:50;15.00;;;6.90;;
59145;SDS011;44928;53.074;6.646;2023-01-23T03:01:35;14.32;;;6.05;;
59145;SDS011;44928;53.074;6.646;2023-01-23T03:04:02;13.27;;;6.90;;
59145;SDS011;44928;53.074;6.646;2023-01-23T03:06:31;14.48;;;6.45;;
59145;SDS011;44928;53.074;6.646;2023-01-23T03:09:04;14.40;;;6.63;;
59145;SDS011;44928;53.074;6.646;2023-01-23T03:11:36;13.95;;;6.70;;
59145;SDS011;44928;53.074;6.646;2023-01-23T03:14:03;16.50;;;6.75;;
59145;SDS011;44928;53.074;6.646;2023-01-23T03:16:30;12.50;;;6.22;;
59145;SDS011;44928;53.074;6.646;2023-01-23T03:18:56;13.50;;;6.82;;
59145;SDS011;44928;53.074;6.646;2023-01-23T03:21:25;15.15;;;6.63;;
59145;SDS011;44928;53.074;6.646;2023-01-23T03:23:51;11.95;;;6.55;;
59145;SDS011;44928;53.074;6.646;2023-01-23T03:26:17;13.63;;;6.78;;
59145;SDS011;44928;53.074;6.646;2023-01-23T03:28:43;12.90;;;6.93;;
59145;SDS011;44928;53.074;6.646;2023-01-23T03:31:27;13.10;;;7.03;;
59145;SDS011;44928;53.074;6.646;2023-01-23T03:33:53;13.80;;;7.35;;
59145;SDS011;44928;53.074;6.646;2023-01-23T03:36:19;12.07;;;5.97;;
59145;SDS011;44928;53.074;6.646;2023-01-23T03:38:45;12.23;;;7.45;;
59145;SDS011;44928;53.074;6.646;2023-01-23T03:41:29;13.30;;;7.15;;
59145;SDS011;44928;53.074;6.646;2023-01-23T03:43:55;12.35;;;6.63;;
59145;SDS011;44928;53.074;6.646;2023-01-23T03:46:21;11.38;;;6.63;;
59145;SDS011;44928;53.074;6.646;2023-01-23T03:48:47;13.57;;;7.15;;
59145;SDS011;44928;53.074;6.646;2023-01-23T03:51:13;14.32;;;7.05;;
59145;SDS011;44928;53.074;6.646;2023-01-23T03:53:39;15.68;;;7.93;;
59145;SDS011;44928;53.074;6.646;2023-01-23T03:56:05;14.55;;;6.45;;
59145;SDS011;44928;53.074;6.646;2023-01-23T03:58:31;13.35;;;6.68;;
59145;SDS011;44928;53.074;6.646;2023-01-23T04:00:57;14.27;;;7.03;;
59145;SDS011;44928;53.074;6.646;2023-01-23T04:03:23;13.70;;;7.50;;
59145;SDS011;44928;53.074;6.646;2023-01-23T04:05:53;15.90;;;7.55;;
59145;SDS011;44928;53.074;6.646;2023-01-23T04:08:19;11.57;;;6.78;;
59145;SDS011;44928;53.074;6.646;2023-01-23T04:10:46;14.88;;;7.53;;
59145;SDS011;44928;53.074;6.646;2023-01-23T04:13:12;14.65;;;7.50;;
59145;SDS011;44928;53.074;6.646;2023-01-23T04:15:38;14.48;;;7.07;;
59145;SDS011;44928;53.074;6.646;2023-01-23T04:18:04;13.43;;;8.05;;
59145;SDS011;44928;53.074;6.646;2023-01-23T04:20:30;15.65;;;7.80;;
59145;SDS011;44928;53.074;6.646;2023-01-23T04:22:55;13.48;;;7.30;;
59145;SDS011;44928;53.074;6.646;2023-01-23T04:25:21;13.85;;;7.68;;
59145;SDS011;44928;53.074;6.646;2023-01-23T04:27:47;13.93;;;7.32;;
59145;SDS011;44928;53.074;6.646;2023-01-23T04:30:14;13.55;;;7.75;;
59145;SDS011;44928;53.074;6.646;2023-01-23T04:32:40;14.35;;;7.80;;
59145;SDS011;44928;53.074;6.646;2023-01-23T04:35:06;13.50;;;7.70;;
59145;SDS011;44928;53.074;6.646;2023-01-23T04:37:32;13.93;;;7.40;;
59145;SDS011;44928;53.074;6.646;2023-01-23T04:39:57;18.13;;;8.10;;
59145;SDS011;44928;53.074;6.646;2023-01-23T04:42:23;12.98;;;7.68;;
59145;SDS011;44928;53.074;6.646;2023-01-23T04:44:49;13.63;;;7.53;;
59145;SDS011;44928;53.074;6.646;2023-01-23T04:47:15;16.00;;;7.63;;
59145;SDS011;44928;53.074;6.646;2023-01-23T04:49:40;13.35;;;7.32;;
59145;SDS011;44928;53.074;6.646;2023-01-23T04:52:07;16.50;;;8.57;;
59145;SDS011;44928;53.074;6.646;2023-01-23T04:54:33;13.45;;;7.90;;
59145;SDS011;44928;53.074;6.646;2023-01-23T04:56:59;13.70;;;7.05;;
59145;SDS011;44928;53.074;6.646;2023-01-23T04:59:24;11.45;;;7.35;;
59145;SDS011;44928;53.074;6.646;2023-01-23T05:01:50;14.77;;;8.10;;
59145;SDS011;44928;53.074;6.646;2023-01-23T05:04:16;12.00;;;7.38;;
59145;SDS011;44928;53.074;6.646;2023-01-23T05:06:42;12.13;;;7.22;;
59145;SDS011;44928;53.074;6.646;2023-01-23T05:09:07;14.55;;;7.50;;
59145;SDS011;44928;53.074;6.646;2023-01-23T05:11:33;16.08;;;7.45;;
59145;SDS011;44928;53.074;6.646;2023-01-23T05:13:59;12.77;;;7.72;;
59145;SDS011;44928;53.074;6.646;2023-01-23T05:16:25;15.30;;;7.32;;
59145;SDS011;44928;53.074;6.646;2023-01-23T05:18:50;14.07;;;7.43;;
59145;SDS011;44928;53.074;6.646;2023-01-23T05:21:16;14.77;;;7.32;;
59145;SDS011;44928;53.074;6.646;2023-01-23T05:23:42;14.25;;;7.18;;
59145;SDS011;44928;53.074;6.646;2023-01-23T05:26:08;13.23;;;6.65;;
59145;SDS011;44928;53.074;6.646;2023-01-23T05:28:33;14.13;;;7.45;;
59145;SDS011;44928;53.074;6.646;2023-01-23T05:30:59;12.63;;;7.03;;
59145;SDS011;44928;53.074;6.646;2023-01-23T05:33:25;15.65;;;6.97;;
59145;SDS011;44928;53.074;6.646;2023-01-23T05:35:50;12.70;;;7.13;;
59145;SDS011;44928;53.074;6.646;2023-01-23T05:38:16;14.10;;;7.45;;
59145;SDS011;44928;53.074;6.646;2023-01-23T05:40:42;14.00;;;7.07;;
59145;SDS011;44928;53.074;6.646;2023-01-23T05:43:10;15.68;;;7.28;;
59145;SDS011;44928;53.074;6.646;2023-01-23T05:45:38;14.13;;;7.32;;
59145;SDS011;44928;53.074;6.646;2023-01-23T05:48:04;12.05;;;6.60;;
59145;SDS011;44928;53.074;6.646;2023-01-23T05:50:30;16.35;;;6.72;;
59145;SDS011;44928;53.074;6.646;2023-01-23T05:52:55;13.57;;;6.53;;
59145;SDS011;44928;53.074;6.646;2023-01-23T05:55:21;14.95;;;6.72;;
59145;SDS011;44928;53.074;6.646;2023-01-23T05:57:47;12.15;;;6.53;;
59145;SDS011;44928;53.074;6.646;2023-01-23T06:00:13;15.88;;;7.15;;
59145;SDS011;44928;53.074;6.646;2023-01-23T06:02:39;13.90;;;6.35;;
59145;SDS011;44928;53.074;6.646;2023-01-23T06:05:06;15.38;;;7.32;;
59145;SDS011;44928;53.074;6.646;2023-01-23T06:07:32;13.18;;;6.90;;
59145;SDS011;44928;53.074;6.646;2023-01-23T06:09:57;12.18;;;6.30;;
59145;SDS011;44928;53.074;6.646;2023-01-23T06:12:23;13.85;;;7.18;;
59145;SDS011;44928;53.074;6.646;2023-01-23T06:14:49;12.70;;;6.63;;
59145;SDS011;44928;53.074;6.646;2023-01-23T06:17:15;11.65;;;6.32;;
59145;SDS011;44928;53.074;6.646;2023-01-23T06:19:41;12.48;;;6.95;;
59145;SDS011;44928;53.074;6.646;2023-01-23T06:22:06;12.25;;;5.88;;
59145;SDS011;44928;53.074;6.646;2023-01-23T06:24:32;15.15;;;6.63;;
59145;SDS011;44928;53.074;6.646;2023-01-23T06:26:58;11.07;;;6.45;;
59145;SDS011;44928;53.074;6.646;2023-01-23T06:29:24;14.55;;;7.05;;
59145;SDS011;44928;53.074;6.646;2023-01-23T06:31:50;12.50;;;6.75;;
59145;SDS011;44928;53.074;6.646;2023-01-23T06:34:15;14.38;;;6.93;;
59145;SDS011;44928;53.074;6.646;2023-01-23T06:36:41;14.85;;;7.15;;
59145;SDS011;44928;53.074;6.646;2023-01-23T06:39:07;11.57;;;6.90;;
59145;SDS011;44928;53.074;6.646;2023-01-23T06:41:37;15.18;;;7.32;;
59145;SDS011;44928;53.074;6.646;2023-01-23T06:44:03;12.07;;;6.63;;
59145;SDS011;44928;53.074;6.646;2023-01-23T06:46:28;13.63;;;6.93;;
59145;SDS011;44928;53.074;6.646;2023-01-23T06:48:54;13.35;;;7.63;;
59145;SDS011;44928;53.074;6.646;2023-01-23T06:51:21;11.85;;;6.88;;
59145;SDS011;44928;53.074;6.646;2023-01-23T06:53:46;13.75;;;7.28;;
59145;SDS011;44928;53.074;6.646;2023-01-23T06:56:12;14.95;;;7.03;;
59145;SDS011;44928;53.074;6.646;2023-01-23T06:58:38;14.68;;;7.13;;
59145;SDS011;44928;53.074;6.646;2023-01-23T07:01:08;12.65;;;6.82;;
59145;SDS011;44928;53.074;6.646;2023-01-23T07:03:42;13.95;;;6.90;;
59145;SDS011;44928;53.074;6.646;2023-01-23T07:06:09;13.40;;;6.95;;
59145;SDS011;44928;53.074;6.646;2023-01-23T07:08:36;13.85;;;6.78;;
59145;SDS011;44928;53.074;6.646;2023-01-23T07:11:02;13.55;;;6.88;;
59145;SDS011;44928;53.074;6.646;2023-01-23T07:13:29;12.75;;;6.68;;
59145;SDS011;44928;53.074;6.646;2023-01-23T07:15:55;13.52;;;7.78;;
59145;SDS011;44928;53.074;6.646;2023-01-23T07:18:21;15.65;;;7.28;;
59145;SDS011;44928;53.074;6.646;2023-01-23T07:20:47;13.13;;;6.63;;
59145;SDS011;44928;53.074;6.646;2023-01-23T07:23:16;12.57;;;6.78;;
59145;SDS011;44928;53.074;6.646;2023-01-23T07:25:42;13.43;;;6.60;;
59145;SDS011;44928;53.074;6.646;2023-01-23T07:28:08;13.38;;;6.95;;
59145;SDS011;44928;53.074;6.646;2023-01-23T07:30:34;15.65;;;7.07;;
59145;SDS011;44928;53.074;6.646;2023-01-23T07:33:00;13.07;;;6.88;;
59145;SDS011;44928;53.074;6.646;2023-01-23T07:35:26;16.40;;;6.93;;
59145;SDS011;44928;53.074;6.646;2023-01-23T07:37:52;11.73;;;6.38;;
59145;SDS011;44928;53.074;6.646;2023-01-23T07:40:18;14.77;;;7.10;;
59145;SDS011;44928;53.074;6.646;2023-01-23T07:42:43;12.00;;;6.65;;
59145;SDS011;44928;53.074;6.646;2023-01-23T07:45:11;11.93;;;6.30;;
59145;SDS011;44928;53.074;6.646;2023-01-23T07:47:37;16.23;;;7.10;;
59145;SDS011;44928;53.074;6.646;2023-01-23T07:50:06;12.80;;;6.78;;
59145;SDS011;44928;53.074;6.646;2023-01-23T07:52:36;13.13;;;6.72;;
59145;SDS011;44928;53.074;6.646;2023-01-23T07:55:02;12.55;;;6.70;;
59145;SDS011;44928;53.074;6.646;2023-01-23T07:57:29;12.55;;;6.00;;
59145;SDS011;44928;53.074;6.646;2023-01-23T07:59:55;12.98;;;7.13;;
59145;SDS011;44928;53.074;6.646;2023-01-23T08:02:20;14.77;;;6.75;;
59145;SDS011;44928;53.074;6.646;2023-01-23T08:04:46;12.35;;;6.43;;
59145;SDS011;44928;53.074;6.646;2023-01-23T08:07:12;13.52;;;7.03;;
59145;SDS011;44928;53.074;6.646;2023-01-23T08:09:38;14.30;;;7.25;;
59145;SDS011;44928;53.074;6.646;2023-01-23T08:12:04;13.18;;;6.97;;
59145;SDS011;44928;53.074;6.646;2023-01-23T08:14:30;13.75;;;6.78;;
59145;SDS011;44928;53.074;6.646;2023-01-23T08:16:56;13.40;;;6.75;;
59145;SDS011;44928;53.074;6.646;2023-01-23T08:19:22;13.07;;;7.22;;
59145;SDS011;44928;53.074;6.646;2023-01-23T08:21:51;12.73;;;6.13;;
59145;SDS011;44928;53.074;6.646;2023-01-23T08:24:18;11.55;;;5.90;;
59145;SDS011;44928;53.074;6.646;2023-01-23T08:26:44;12.02;;;6.25;;
59145;SDS011;44928;53.074;6.646;2023-01-23T08:29:10;12.82;;;6.15;;
59145;SDS011;44928;53.074;6.646;2023-01-23T08:31:36;12.70;;;6.65;;
59145;SDS011;44928;53.074;6.646;2023-01-23T08:34:02;11.68;;;6.40;;
59145;SDS011;44928;53.074;6.646;2023-01-23T08:36:28;11.90;;;5.57;;
59145;SDS011;44928;53.074;6.646;2023-01-23T08:38:54;11.50;;;6.10;;
59145;SDS011;44928;53.074;6.646;2023-01-23T08:41:20;12.13;;;6.97;;
59145;SDS011;44928;53.074;6.646;2023-01-23T08:43:47;11.65;;;5.88;;
59145;SDS011;44928;53.074;6.646;2023-01-23T08:46:14;11.85;;;6.25;;
59145;SDS011;44928;53.074;6.646;2023-01-23T08:48:40;10.80;;;6.15;;
59145;SDS011;44928;53.074;6.646;2023-01-23T08:51:07;10.77;;;5.60;;
59145;SDS011;44928;53.074;6.646;2023-01-23T08:53:35;12.57;;;6.57;;
59145;SDS011;44928;53.074;6.646;2023-01-23T08:56:02;11.85;;;6.47;;
59145;SDS011;44928;53.074;6.646;2023-01-23T08:58:33;10.77;;;5.93;;
59145;SDS011;44928;53.074;6.646;2023-01-23T09:00:59;11.25;;;5.57;;
59145;SDS011;44928;53.074;6.646;2023-01-23T09:03:25;13.77;;;7.25;;
59145;SDS011;44928;53.074;6.646;2023-01-23T09:05:51;10.20;;;5.88;;
59145;SDS011;44928;53.074;6.646;2023-01-23T09:08:17;11.10;;;5.97;;
59145;SDS011;44928;53.074;6.646;2023-01-23T09:10:43;12.35;;;6.00;;
59145;SDS011;44928;53.074;6.646;2023-01-23T09:13:09;9.85;;;5.40;;
59145;SDS011;44928;53.074;6.646;2023-01-23T09:15:38;14.43;;;6.15;;
59145;SDS011;44928;53.074;6.646;2023-01-23T09:18:04;9.90;;;5.78;;
59145;SDS011;44928;53.074;6.646;2023-01-23T09:20:30;10.90;;;5.82;;
59145;SDS011;44928;53.074;6.646;2023-01-23T09:22:56;9.82;;;5.47;;
59145;SDS011;44928;53.074;6.646;2023-01-23T09:25:22;10.80;;;5.30;;
59145;SDS011;44928;53.074;6.646;2023-01-23T09:27:48;12.07;;;5.40;;
59145;SDS011;44928;53.074;6.646;2023-01-23T09:30:13;11.35;;;5.32;;
59145;SDS011;44928;53.074;6.646;2023-01-23T09:32:39;9.80;;;5.72;;
59145;SDS011;44928;53.074;6.646;2023-01-23T09:35:05;12.55;;;5.05;;
59145;SDS011;44928;53.074;6.646;2023-01-23T09:37:31;10.10;;;5.28;;
59145;SDS011;44928;53.074;6.646;2023-01-23T09:40:18;9.88;;;5.13;;
59145;SDS011;44928;53.074;6.646;2023-01-23T09:42:47;10.43;;;5.25;;
59145;SDS011;44928;53.074;6.646;2023-01-23T09:45:15;10.98;;;5.15;;
59145;SDS011;44928;53.074;6.646;2023-01-23T09:47:47;8.90;;;4.80;;
59145;SDS011;44928;53.074;6.646;2023-01-23T09:50:24;9.07;;;4.60;;
59145;SDS011;44928;53.074;6.646;2023-01-23T09:53:15;9.38;;;4.60;;
59145;SDS011;44928;53.074;6.646;2023-01-23T09:55:43;12.35;;;5.10;;
59145;SDS011;44928;53.074;6.646;2023-01-23T09:58:17;9.25;;;4.68;;
59145;SDS011;44928;53.074;6.646;2023-01-23T10:01:11;10.07;;;5.43;;
59145;SDS011;44928;53.074;6.646;2023-01-23T10:03:37;9.40;;;4.70;;
59145;SDS011;44928;53.074;6.646;2023-01-23T10:06:07;10.85;;;5.30;;
59145;SDS011;44928;53.074;6.646;2023-01-23T10:17:05;10.65;;;5.45;;
59145;SDS011;44928;53.074;6.646;2023-01-23T10:25:47;10.93;;;5.07;;
59145;SDS011;44928;53.074;6.646;2023-01-23T10:28:33;9.60;;;5.43;;
59145;SDS011;44928;53.074;6.646;2023-01-23T10:31:21;9.43;;;5.68;;
59145;SDS011;44928;53.074;6.646;2023-01-23T10:36:44;10.75;;;4.97;;
59145;SDS011;44928;53.074;6.646;2023-01-23T10:39:13;10.65;;;5.68;;
59145;SDS011;44928;53.074;6.646;2023-01-23T10:41:44;9.30;;;5.30;;
59145;SDS011;44928;53.074;6.646;2023-01-23T10:44:14;8.95;;;5.22;;
59145;SDS011;44928;53.074;6.646;2023-01-23T10:46:46;10.75;;;5.72;;
59145;SDS011;44928;53.074;6.646;2023-01-23T10:49:27;12.93;;;5.80;;
59145;SDS011;44928;53.074;6.646;2023-01-23T10:51:59;10.30;;;5.53;;
59145;SDS011;44928;53.074;6.646;2023-01-23T10:54:26;10.27;;;6.65;;
59145;SDS011;44928;53.074;6.646;2023-01-23T10:56:55;9.65;;;5.55;;
59145;SDS011;44928;53.074;6.646;2023-01-23T11:02:17;11.57;;;6.35;;
59145;SDS011;44928;53.074;6.646;2023-01-23T11:04:45;11.70;;;6.40;;
59145;SDS011;44928;53.074;6.646;2023-01-23T11:07:14;11.65;;;6.40;;
59145;SDS011;44928;53.074;6.646;2023-01-23T11:10:00;11.93;;;6.90;;
59145;SDS011;44928;53.074;6.646;2023-01-23T11:12:49;11.48;;;6.35;;
59145;SDS011;44928;53.074;6.646;2023-01-23T11:15:23;10.95;;;6.55;;
59145;SDS011;44928;53.074;6.646;2023-01-23T11:17:52;10.25;;;6.10;;
59145;SDS011;44928;53.074;6.646;2023-01-23T11:23:28;13.30;;;6.38;;
59145;SDS011;44928;53.074;6.646;2023-01-23T11:25:48;13.23;;;6.47;;
59145;SDS011;44928;53.074;6.646;2023-01-23T11:30:52;15.48;;;7.05;;
59145;SDS011;44928;53.074;6.646;2023-01-23T11:33:36;11.80;;;6.60;;
59145;SDS011;44928;53.074;6.646;2023-01-23T11:41:52;13.68;;;7.03;;
59145;SDS011;44928;53.074;6.646;2023-01-23T11:44:19;14.07;;;6.93;;
59145;SDS011;44928;53.074;6.646;2023-01-23T12:01:49;11.75;;;7.05;;
59145;SDS011;44928;53.074;6.646;2023-01-23T12:04:19;11.60;;;6.50;;
59145;SDS011;44928;53.074;6.646;2023-01-23T12:07:08;12.45;;;7.40;;
59145;SDS011;44928;53.074;6.646;2023-01-23T12:26:33;14.65;;;8.38;;
59145;SDS011;44928;53.074;6.646;2023-01-23T12:31:43;14.30;;;7.78;;
59145;SDS011;44928;53.074;6.646;2023-01-23T12:37:22;15.00;;;8.70;;
59145;SDS011;44928;53.074;6.646;2023-01-23T12:42:20;14.23;;;8.60;;
59145;SDS011;44928;53.074;6.646;2023-01-23T12:47:38;15.93;;;9.80;;
59145;SDS011;44928;53.074;6.646;2023-01-23T12:50:12;15.40;;;9.38;;
59145;SDS011;44928;53.074;6.646;2023-01-23T12:52:46;14.32;;;9.82;;
59145;SDS011;44928;53.074;6.646;2023-01-23T12:58:25;14.30;;;8.88;;
59145;SDS011;44928;53.074;6.646;2023-01-23T13:12:24;14.80;;;8.98;;
59145;SDS011;44928;53.074;6.646;2023-01-23T13:14:52;15.40;;;8.93;;
59145;SDS011;44928;53.074;6.646;2023-01-23T13:20:27;14.02;;;9.02;;
59145;SDS011;44928;53.074;6.646;2023-01-23T13:25:47;14.20;;;9.30;;
59145;SDS011;44928;53.074;6.646;2023-01-23T13:34:32;11.50;;;6.90;;
59145;SDS011;44928;53.074;6.646;2023-01-23T13:36:55;13.35;;;7.68;;
59145;SDS011;44928;53.074;6.646;2023-01-23T13:42:39;13.35;;;7.05;;
59145;SDS011;44928;53.074;6.646;2023-01-23T13:48:16;12.57;;;6.88;;
59145;SDS011;44928;53.074;6.646;2023-01-23T13:51:17;12.00;;;7.03;;
59145;SDS011;44928;53.074;6.646;2023-01-23T13:53:47;11.80;;;6.57;;
59145;SDS011;44928;53.074;6.646;2023-01-23T13:56:32;12.35;;;6.88;;
59145;SDS011;44928;53.074;6.646;2023-01-23T13:59:19;11.43;;;6.80;;
59145;SDS011;44928;53.074;6.646;2023-01-23T14:02:03;11.70;;;6.40;;
59145;SDS011;44928;53.074;6.646;2023-01-23T14:05:23;11.43;;;6.45;;
59145;SDS011;44928;53.074;6.646;2023-01-23T14:07:59;11.43;;;6.65;;
59145;SDS011;44928;53.074;6.646;2023-01-23T14:10:29;15.15;;;7.38;;
59145;SDS011;44928;53.074;6.646;2023-01-23T14:13:09;11.27;;;6.53;;
59145;SDS011;44928;53.074;6.646;2023-01-23T14:15:37;12.18;;;6.88;;
59145;SDS011;44928;53.074;6.646;2023-01-23T14:18:25;12.15;;;6.63;;
59145;SDS011;44928;53.074;6.646;2023-01-23T14:20:51;11.43;;;6.25;;
59145;SDS011;44928;53.074;6.646;2023-01-23T14:26:05;13.57;;;7.13;;
59145;SDS011;44928;53.074;6.646;2023-01-23T14:28:35;11.38;;;6.13;;
59145;SDS011;44928;53.074;6.646;2023-01-23T14:31:03;11.90;;;6.70;;
59145;SDS011;44928;53.074;6.646;2023-01-23T14:33:43;13.45;;;7.25;;
59145;SDS011;44928;53.074;6.646;2023-01-23T14:36:15;12.07;;;6.68;;
59145;SDS011;44928;53.074;6.646;2023-01-23T14:38:46;12.02;;;6.68;;
59145;SDS011;44928;53.074;6.646;2023-01-23T14:41:13;12.75;;;6.75;;
59145;SDS011;44928;53.074;6.646;2023-01-23T14:43:40;13.23;;;6.78;;
59145;SDS011;44928;53.074;6.646;2023-01-23T14:48:42;11.25;;;7.05;;
59145;SDS011;44928;53.074;6.646;2023-01-23T14:51:22;11.18;;;6.72;;
59145;SDS011;44928;53.074;6.646;2023-01-23T14:53:59;12.25;;;6.63;;
59145;SDS011;44928;53.074;6.646;2023-01-23T14:56:31;12.23;;;6.75;;
59145;SDS011;44928;53.074;6.646;2023-01-23T14:59:00;12.23;;;7.10;;
59145;SDS011;44928;53.074;6.646;2023-01-23T15:01:28;12.35;;;7.38;;
59145;SDS011;44928;53.074;6.646;2023-01-23T15:03:59;12.95;;;6.63;;
59145;SDS011;44928;53.074;6.646;2023-01-23T15:06:27;11.75;;;7.20;;
59145;SDS011;44928;53.074;6.646;2023-01-23T15:08:54;11.73;;;6.90;;
59145;SDS011;44928;53.074;6.646;2023-01-23T15:11:30;12.20;;;6.85;;
59145;SDS011;44928;53.074;6.646;2023-01-23T15:13:56;12.27;;;7.38;;
59145;SDS011;44928;53.074;6.646;2023-01-23T15:21:40;11.32;;;6.25;;
59145;SDS011;44928;53.074;6.646;2023-01-23T15:26:39;12.48;;;6.88;;
59145;SDS011;44928;53.074;6.646;2023-01-23T15:36:35;13.57;;;7.78;;
59145;SDS011;44928;53.074;6.646;2023-01-23T15:39:02;11.75;;;7.25;;
59145;SDS011;44928;53.074;6.646;2023-01-23T15:42:29;12.13;;;7.65;;
59145;SDS011;44928;53.074;6.646;2023-01-23T15:44:25;14.02;;;7.53;;
59145;SDS011;44928;53.074;6.646;2023-01-23T15:46:53;11.85;;;6.93;;
59145;SDS011;44928;53.074;6.646;2023-01-23T15:49:19;15.00;;;7.72;;
59145;SDS011;44928;53.074;6.646;2023-01-23T15:51:45;13.25;;;7.65;;
59145;SDS011;44928;53.074;6.646;2023-01-23T15:54:17;12.35;;;7.05;;
59145;SDS011;44928;53.074;6.646;2023-01-23T15:56:48;11.60;;;6.95;;
59145;SDS011;44928;53.074;6.646;2023-01-23T15:59:14;11.75;;;6.72;;
59145;SDS011;44928;53.074;6.646;2023-01-23T16:01:41;13.07;;;7.90;;
59145;SDS011;44928;53.074;6.646;2023-01-23T16:04:08;14.63;;;7.25;;
59145;SDS011;44928;53.074;6.646;2023-01-23T16:06:34;13.15;;;7.60;;
59145;SDS011;44928;53.074;6.646;2023-01-23T16:09:00;15.35;;;7.63;;
59145;SDS011;44928;53.074;6.646;2023-01-23T16:11:27;13.77;;;8.02;;
59145;SDS011;44928;53.074;6.646;2023-01-23T16:16:24;15.70;;;8.07;;
59145;SDS011;44928;53.074;6.646;2023-01-23T16:18:49;11.90;;;6.60;;
59145;SDS011;44928;53.074;6.646;2023-01-23T16:21:16;13.35;;;8.13;;
59145;SDS011;44928;53.074;6.646;2023-01-23T16:23:43;12.68;;;7.97;;
59145;SDS011;44928;53.074;6.646;2023-01-23T16:26:18;12.15;;;7.35;;
59145;SDS011;44928;53.074;6.646;2023-01-23T16:28:46;15.15;;;8.18;;
59145;SDS011;44928;53.074;6.646;2023-01-23T16:31:12;12.82;;;8.18;;
59145;SDS011;44928;53.074;6.646;2023-01-23T16:33:38;13.50;;;8.02;;
59145;SDS011;44928;53.074;6.646;2023-01-23T16:36:04;14.10;;;7.78;;
59145;SDS011;44928;53.074;6.646;2023-01-23T16:38:31;13.88;;;7.68;;
59145;SDS011;44928;53.074;6.646;2023-01-23T16:40:57;16.13;;;8.15;;
59145;SDS011;44928;53.074;6.646;2023-01-23T16:43:24;14.50;;;8.48;;
59145;SDS011;44928;53.074;6.646;2023-01-23T16:45:51;13.27;;;7.88;;
59145;SDS011;44928;53.074;6.646;2023-01-23T16:48:17;13.95;;;7.95;;
59145;SDS011;44928;53.074;6.646;2023-01-23T16:50:45;12.13;;;7.60;;
59145;SDS011;44928;53.074;6.646;2023-01-23T16:53:22;12.57;;;7.47;;
59145;SDS011;44928;53.074;6.646;2023-01-23T16:56:02;11.57;;;7.20;;
59145;SDS011;44928;53.074;6.646;2023-01-23T16:58:38;13.02;;;7.82;;
59145;SDS011;44928;53.074;6.646;2023-01-23T17:01:15;14.30;;;7.82;;
59145;SDS011;44928;53.074;6.646;2023-01-23T17:03:44;12.63;;;7.85;;